sensor_id;sensor_type;location;lat;lon;timestamp;P1;durP1;ratioP1;P2;durP2;ratioP2
50739;SDS011;36704;52.524;17.580;2023-05-18T00:01:58;8.48;;;3.13;;
50739;SDS011;36704;52.524;17.580;2023-05-18T00:04:48;10.48;;;3.72;;
50739;SDS011;36704;52.524;17.580;2023-05-18T00:07:36;13.73;;;3.63;;
50739;SDS011;36704;52.524;17.580;2023-05-18T00:10:22;8.23;;;3.50;;
50739;SDS011;36704;52.524;17.580;2023-05-18T00:13:11;11.40;;;3.55;;
50739;SDS011;36704;52.524;17.580;2023-05-18T00:15:58;8.15;;;3.72;;
50739;SDS011;36704;52.524;17.580;2023-05-18T00:18:50;10.27;;;4.13;;
50739;SDS011;36704;52.524;17.580;2023-05-18T00:21:44;10.20;;;3.65;;
50739;SDS011;36704;52.524;17.580;2023-05-18T00:24:34;6.75;;;3.25;;
50739;SDS011;36704;52.524;17.580;2023-05-18T00:27:24;9.63;;;3.63;;
50739;SDS011;36704;52.524;17.580;2023-05-18T00:30:11;9.18;;;3.20;;
50739;SDS011;36704;52.524;17.580;2023-05-18T00:32:58;9.77;;;3.30;;
50739;SDS011;36704;52.524;17.580;2023-05-18T00:35:47;8.55;;;3.28;;
50739;SDS011;36704;52.524;17.580;2023-05-18T00:38:34;10.05;;;3.90;;
50739;SDS011;36704;52.524;17.580;2023-05-18T00:41:21;7.40;;;3.42;;
50739;SDS011;36704;52.524;17.580;2023-05-18T00:44:08;8.35;;;3.58;;
50739;SDS011;36704;52.524;17.580;2023-05-18T00:46:56;10.23;;;4.28;;
50739;SDS011;36704;52.524;17.580;2023-05-18T00:49:45;11.88;;;3.33;;
50739;SDS011;36704;52.524;17.580;2023-05-18T00:52:32;7.38;;;3.15;;
50739;SDS011;36704;52.524;17.580;2023-05-18T00:55:20;9.15;;;3.30;;
50739;SDS011;36704;52.524;17.580;2023-05-18T00:58:08;13.02;;;3.45;;
50739;SDS011;36704;52.524;17.580;2023-05-18T01:00:57;10.40;;;3.42;;
50739;SDS011;36704;52.524;17.580;2023-05-18T01:03:44;8.15;;;3.67;;
50739;SDS011;36704;52.524;17.580;2023-05-18T01:06:31;8.95;;;3.45;;
50739;SDS011;36704;52.524;17.580;2023-05-18T01:09:21;8.50;;;3.20;;
50739;SDS011;36704;52.524;17.580;2023-05-18T01:12:15;8.90;;;3.75;;
50739;SDS011;36704;52.524;17.580;2023-05-18T01:15:09;7.40;;;3.17;;
50739;SDS011;36704;52.524;17.580;2023-05-18T01:23:53;10.80;;;4.03;;
50739;SDS011;36704;52.524;17.580;2023-05-18T01:26:44;9.77;;;3.67;;
50739;SDS011;36704;52.524;17.580;2023-05-18T01:29:32;14.88;;;3.85;;
50739;SDS011;36704;52.524;17.580;2023-05-18T01:32:19;11.45;;;3.60;;
50739;SDS011;36704;52.524;17.580;2023-05-18T01:35:09;13.60;;;3.78;;
50739;SDS011;36704;52.524;17.580;2023-05-18T01:37:57;8.85;;;3.63;;
50739;SDS011;36704;52.524;17.580;2023-05-18T01:40:51;7.75;;;2.92;;
50739;SDS011;36704;52.524;17.580;2023-05-18T01:46:59;8.80;;;3.60;;
50739;SDS011;36704;52.524;17.580;2023-05-18T01:52:53;6.68;;;2.65;;
50739;SDS011;36704;52.524;17.580;2023-05-18T01:55:49;7.20;;;2.42;;
50739;SDS011;36704;52.524;17.580;2023-05-18T01:58:36;7.20;;;2.53;;
50739;SDS011;36704;52.524;17.580;2023-05-18T02:01:23;7.38;;;2.90;;
50739;SDS011;36704;52.524;17.580;2023-05-18T02:04:10;6.32;;;2.95;;
50739;SDS011;36704;52.524;17.580;2023-05-18T02:06:58;6.13;;;3.15;;
50739;SDS011;36704;52.524;17.580;2023-05-18T02:09:56;8.70;;;2.70;;
50739;SDS011;36704;52.524;17.580;2023-05-18T02:12:43;10.77;;;2.90;;
50739;SDS011;36704;52.524;17.580;2023-05-18T02:15:33;9.93;;;2.70;;
50739;SDS011;36704;52.524;17.580;2023-05-18T02:18:20;7.75;;;2.67;;
50739;SDS011;36704;52.524;17.580;2023-05-18T02:21:07;9.18;;;2.95;;
50739;SDS011;36704;52.524;17.580;2023-05-18T02:23:55;9.02;;;3.53;;
50739;SDS011;36704;52.524;17.580;2023-05-18T02:26:44;6.85;;;2.78;;
50739;SDS011;36704;52.524;17.580;2023-05-18T02:29:31;8.35;;;2.85;;
50739;SDS011;36704;52.524;17.580;2023-05-18T02:32:21;8.60;;;3.55;;
50739;SDS011;36704;52.524;17.580;2023-05-18T02:35:08;7.05;;;2.90;;
50739;SDS011;36704;52.524;17.580;2023-05-18T02:37:58;8.93;;;3.30;;
50739;SDS011;36704;52.524;17.580;2023-05-18T02:40:45;9.35;;;3.00;;
50739;SDS011;36704;52.524;17.580;2023-05-18T02:43:35;6.15;;;2.72;;
50739;SDS011;36704;52.524;17.580;2023-05-18T02:46:26;7.97;;;3.08;;
50739;SDS011;36704;52.524;17.580;2023-05-18T02:49:12;6.43;;;2.92;;
50739;SDS011;36704;52.524;17.580;2023-05-18T02:51:59;10.77;;;3.45;;
50739;SDS011;36704;52.524;17.580;2023-05-18T02:54:46;8.50;;;3.08;;
50739;SDS011;36704;52.524;17.580;2023-05-18T02:57:41;9.23;;;3.15;;
50739;SDS011;36704;52.524;17.580;2023-05-18T03:00:35;6.18;;;3.03;;
50739;SDS011;36704;52.524;17.580;2023-05-18T03:03:22;9.32;;;3.03;;
50739;SDS011;36704;52.524;17.580;2023-05-18T03:06:10;9.85;;;3.67;;
50739;SDS011;36704;52.524;17.580;2023-05-18T03:08:59;7.75;;;2.90;;
50739;SDS011;36704;52.524;17.580;2023-05-18T03:11:52;8.00;;;2.72;;
50739;SDS011;36704;52.524;17.580;2023-05-18T03:14:39;9.43;;;3.10;;
50739;SDS011;36704;52.524;17.580;2023-05-18T03:17:26;8.73;;;3.38;;
50739;SDS011;36704;52.524;17.580;2023-05-18T03:20:13;7.40;;;2.72;;
50739;SDS011;36704;52.524;17.580;2023-05-18T03:23:00;16.83;;;4.40;;
50739;SDS011;36704;52.524;17.580;2023-05-18T03:25:47;9.98;;;2.97;;
50739;SDS011;36704;52.524;17.580;2023-05-18T03:28:45;10.40;;;3.88;;
50739;SDS011;36704;52.524;17.580;2023-05-18T03:31:34;13.43;;;3.65;;
50739;SDS011;36704;52.524;17.580;2023-05-18T03:34:22;11.73;;;4.15;;
50739;SDS011;36704;52.524;17.580;2023-05-18T03:37:09;11.13;;;4.15;;
50739;SDS011;36704;52.524;17.580;2023-05-18T03:40:07;13.40;;;4.32;;
50739;SDS011;36704;52.524;17.580;2023-05-18T03:42:57;9.50;;;3.75;;
50739;SDS011;36704;52.524;17.580;2023-05-18T03:45:44;9.77;;;3.47;;
50739;SDS011;36704;52.524;17.580;2023-05-18T03:48:31;11.30;;;3.22;;
50739;SDS011;36704;52.524;17.580;2023-05-18T03:51:17;13.85;;;3.85;;
50739;SDS011;36704;52.524;17.580;2023-05-18T03:54:04;8.63;;;3.00;;
50739;SDS011;36704;52.524;17.580;2023-05-18T03:56:51;8.75;;;3.17;;
50739;SDS011;36704;52.524;17.580;2023-05-18T03:59:38;9.80;;;3.20;;
50739;SDS011;36704;52.524;17.580;2023-05-18T04:02:27;10.93;;;3.00;;
50739;SDS011;36704;52.524;17.580;2023-05-18T04:05:15;8.60;;;3.40;;
50739;SDS011;36704;52.524;17.580;2023-05-18T04:08:01;8.40;;;3.22;;
50739;SDS011;36704;52.524;17.580;2023-05-18T04:10:48;6.97;;;3.22;;
50739;SDS011;36704;52.524;17.580;2023-05-18T04:13:36;7.47;;;2.92;;
50739;SDS011;36704;52.524;17.580;2023-05-18T04:16:24;7.15;;;2.55;;
50739;SDS011;36704;52.524;17.580;2023-05-18T04:19:17;8.65;;;2.75;;
50739;SDS011;36704;52.524;17.580;2023-05-18T04:22:06;7.15;;;2.85;;
50739;SDS011;36704;52.524;17.580;2023-05-18T04:24:53;5.53;;;2.28;;
50739;SDS011;36704;52.524;17.580;2023-05-18T04:27:43;10.80;;;5.10;;
50739;SDS011;36704;52.524;17.580;2023-05-18T04:30:36;14.38;;;3.00;;
50739;SDS011;36704;52.524;17.580;2023-05-18T04:33:24;8.57;;;3.28;;
50739;SDS011;36704;52.524;17.580;2023-05-18T04:36:11;11.82;;;4.05;;
50739;SDS011;36704;52.524;17.580;2023-05-18T04:38:58;9.73;;;3.22;;
50739;SDS011;36704;52.524;17.580;2023-05-18T04:41:45;8.35;;;2.92;;
50739;SDS011;36704;52.524;17.580;2023-05-18T04:44:33;6.63;;;2.47;;
50739;SDS011;36704;52.524;17.580;2023-05-18T04:47:19;9.82;;;3.00;;
50739;SDS011;36704;52.524;17.580;2023-05-18T04:50:09;12.23;;;3.72;;
50739;SDS011;36704;52.524;17.580;2023-05-18T04:52:56;11.65;;;6.00;;
50739;SDS011;36704;52.524;17.580;2023-05-18T04:55:45;16.00;;;6.68;;
50739;SDS011;36704;52.524;17.580;2023-05-18T04:58:33;12.95;;;5.85;;
50739;SDS011;36704;52.524;17.580;2023-05-18T05:01:20;15.00;;;6.18;;
50739;SDS011;36704;52.524;17.580;2023-05-18T05:04:07;14.13;;;6.22;;
50739;SDS011;36704;52.524;17.580;2023-05-18T05:06:54;13.15;;;5.70;;
50739;SDS011;36704;52.524;17.580;2023-05-18T05:09:41;13.10;;;3.53;;
50739;SDS011;36704;52.524;17.580;2023-05-18T05:12:28;13.15;;;4.95;;
50739;SDS011;36704;52.524;17.580;2023-05-18T05:15:18;13.13;;;3.40;;
50739;SDS011;36704;52.524;17.580;2023-05-18T05:18:08;12.55;;;3.63;;
50739;SDS011;36704;52.524;17.580;2023-05-18T05:20:54;11.32;;;3.40;;
50739;SDS011;36704;52.524;17.580;2023-05-18T05:23:41;12.18;;;3.90;;
50739;SDS011;36704;52.524;17.580;2023-05-18T05:26:27;8.98;;;3.33;;
50739;SDS011;36704;52.524;17.580;2023-05-18T05:29:14;9.90;;;3.03;;
50739;SDS011;36704;52.524;17.580;2023-05-18T05:32:02;7.68;;;2.40;;
50739;SDS011;36704;52.524;17.580;2023-05-18T05:34:49;7.70;;;2.72;;
50739;SDS011;36704;52.524;17.580;2023-05-18T05:37:38;8.98;;;3.00;;
50739;SDS011;36704;52.524;17.580;2023-05-18T05:40:25;12.50;;;4.00;;
50739;SDS011;36704;52.524;17.580;2023-05-18T05:43:13;11.35;;;3.58;;
50739;SDS011;36704;52.524;17.580;2023-05-18T05:46:01;7.25;;;2.40;;
50739;SDS011;36704;52.524;17.580;2023-05-18T05:48:48;6.28;;;3.20;;
50739;SDS011;36704;52.524;17.580;2023-05-18T05:51:35;11.20;;;2.60;;
50739;SDS011;36704;52.524;17.580;2023-05-18T05:54:24;7.43;;;2.67;;
50739;SDS011;36704;52.524;17.580;2023-05-18T05:57:13;9.48;;;3.22;;
50739;SDS011;36704;52.524;17.580;2023-05-18T05:59:59;8.27;;;2.20;;
50739;SDS011;36704;52.524;17.580;2023-05-18T06:02:51;7.53;;;2.08;;
50739;SDS011;36704;52.524;17.580;2023-05-18T06:05:44;7.60;;;2.70;;
50739;SDS011;36704;52.524;17.580;2023-05-18T06:08:33;7.43;;;2.20;;
50739;SDS011;36704;52.524;17.580;2023-05-18T06:11:27;6.25;;;1.98;;
50739;SDS011;36704;52.524;17.580;2023-05-18T06:14:14;7.07;;;1.70;;
50739;SDS011;36704;52.524;17.580;2023-05-18T06:17:02;5.30;;;1.70;;
50739;SDS011;36704;52.524;17.580;2023-05-18T06:19:53;5.05;;;1.80;;
50739;SDS011;36704;52.524;17.580;2023-05-18T06:22:39;8.10;;;2.53;;
50739;SDS011;36704;52.524;17.580;2023-05-18T06:25:37;3.85;;;1.70;;
50739;SDS011;36704;52.524;17.580;2023-05-18T06:28:39;7.30;;;1.70;;
50739;SDS011;36704;52.524;17.580;2023-05-18T06:32:07;6.95;;;1.50;;
50739;SDS011;36704;52.524;17.580;2023-05-18T06:35:02;6.13;;;1.70;;
50739;SDS011;36704;52.524;17.580;2023-05-18T06:37:50;5.32;;;1.60;;
50739;SDS011;36704;52.524;17.580;2023-05-18T06:40:39;4.90;;;1.67;;
50739;SDS011;36704;52.524;17.580;2023-05-18T06:43:25;4.28;;;1.50;;
50739;SDS011;36704;52.524;17.580;2023-05-18T06:46:35;4.72;;;1.80;;
50739;SDS011;36704;52.524;17.580;2023-05-18T06:49:29;4.90;;;1.50;;
50739;SDS011;36704;52.524;17.580;2023-05-18T06:52:16;4.30;;;2.08;;
50739;SDS011;36704;52.524;17.580;2023-05-18T06:55:03;4.35;;;1.35;;
50739;SDS011;36704;52.524;17.580;2023-05-18T06:57:50;3.15;;;1.30;;
50739;SDS011;36704;52.524;17.580;2023-05-18T07:00:38;3.38;;;1.70;;
50739;SDS011;36704;52.524;17.580;2023-05-18T07:03:27;7.30;;;1.85;;
50739;SDS011;36704;52.524;17.580;2023-05-18T07:06:14;3.50;;;1.55;;
50739;SDS011;36704;52.524;17.580;2023-05-18T07:09:01;4.85;;;1.20;;
50739;SDS011;36704;52.524;17.580;2023-05-18T07:11:49;3.33;;;1.45;;
50739;SDS011;36704;52.524;17.580;2023-05-18T07:14:38;5.45;;;1.42;;
50739;SDS011;36704;52.524;17.580;2023-05-18T07:17:26;3.60;;;1.60;;
50739;SDS011;36704;52.524;17.580;2023-05-18T07:20:12;2.97;;;1.33;;
50739;SDS011;36704;52.524;17.580;2023-05-18T07:23:07;2.92;;;1.42;;
50739;SDS011;36704;52.524;17.580;2023-05-18T07:25:55;4.70;;;1.63;;
50739;SDS011;36704;52.524;17.580;2023-05-18T07:28:45;5.10;;;1.52;;
50739;SDS011;36704;52.524;17.580;2023-05-18T07:31:34;2.95;;;1.30;;
50739;SDS011;36704;52.524;17.580;2023-05-18T07:37:37;2.30;;;1.00;;
50739;SDS011;36704;52.524;17.580;2023-05-18T07:40:27;2.87;;;0.90;;
50739;SDS011;36704;52.524;17.580;2023-05-18T07:43:13;2.05;;;0.95;;
50739;SDS011;36704;52.524;17.580;2023-05-18T07:46:00;3.15;;;1.00;;
50739;SDS011;36704;52.524;17.580;2023-05-18T07:48:50;4.20;;;1.20;;
50739;SDS011;36704;52.524;17.580;2023-05-18T07:51:36;1.65;;;1.00;;
50739;SDS011;36704;52.524;17.580;2023-05-18T07:54:23;1.55;;;1.00;;
50739;SDS011;36704;52.524;17.580;2023-05-18T07:57:11;3.17;;;1.00;;
50739;SDS011;36704;52.524;17.580;2023-05-18T07:59:57;3.00;;;1.00;;
50739;SDS011;36704;52.524;17.580;2023-05-18T08:02:45;3.15;;;0.95;;
50739;SDS011;36704;52.524;17.580;2023-05-18T08:05:32;5.28;;;1.60;;
50739;SDS011;36704;52.524;17.580;2023-05-18T08:08:19;4.82;;;1.55;;
50739;SDS011;36704;52.524;17.580;2023-05-18T08:11:06;2.28;;;1.40;;
50739;SDS011;36704;52.524;17.580;2023-05-18T08:13:53;4.80;;;1.42;;
50739;SDS011;36704;52.524;17.580;2023-05-18T08:16:40;4.15;;;1.27;;
50739;SDS011;36704;52.524;17.580;2023-05-18T08:19:26;24.35;;;4.90;;
50739;SDS011;36704;52.524;17.580;2023-05-18T08:22:18;12.30;;;2.35;;
50739;SDS011;36704;52.524;17.580;2023-05-18T08:25:05;2.70;;;1.30;;
50739;SDS011;36704;52.524;17.580;2023-05-18T08:27:52;2.15;;;1.10;;
50739;SDS011;36704;52.524;17.580;2023-05-18T08:30:39;4.30;;;1.00;;
50739;SDS011;36704;52.524;17.580;2023-05-18T08:33:25;3.45;;;1.20;;
50739;SDS011;36704;52.524;17.580;2023-05-18T08:36:12;1.73;;;0.90;;
50739;SDS011;36704;52.524;17.580;2023-05-18T08:38:59;3.83;;;1.50;;
50739;SDS011;36704;52.524;17.580;2023-05-18T08:41:49;18.20;;;4.05;;
50739;SDS011;36704;52.524;17.580;2023-05-18T08:44:48;7.30;;;2.05;;
50739;SDS011;36704;52.524;17.580;2023-05-18T08:47:44;4.13;;;1.40;;
50739;SDS011;36704;52.524;17.580;2023-05-18T08:50:34;2.20;;;1.17;;
50739;SDS011;36704;52.524;17.580;2023-05-18T08:53:21;2.05;;;1.10;;
50739;SDS011;36704;52.524;17.580;2023-05-18T08:56:12;4.20;;;1.40;;
50739;SDS011;36704;52.524;17.580;2023-05-18T08:59:02;3.00;;;1.35;;
50739;SDS011;36704;52.524;17.580;2023-05-18T09:01:50;2.60;;;1.20;;
50739;SDS011;36704;52.524;17.580;2023-05-18T09:04:37;5.60;;;1.63;;
50739;SDS011;36704;52.524;17.580;2023-05-18T09:07:25;11.75;;;4.07;;
50739;SDS011;36704;52.524;17.580;2023-05-18T09:10:13;3.65;;;1.83;;
50739;SDS011;36704;52.524;17.580;2023-05-18T09:13:00;2.47;;;1.48;;
50739;SDS011;36704;52.524;17.580;2023-05-18T09:15:49;5.55;;;1.80;;
50739;SDS011;36704;52.524;17.580;2023-05-18T09:18:36;4.55;;;1.60;;
50739;SDS011;36704;52.524;17.580;2023-05-18T09:21:26;1.42;;;1.10;;
50739;SDS011;36704;52.524;17.580;2023-05-18T09:24:12;4.50;;;1.50;;
50739;SDS011;36704;52.524;17.580;2023-05-18T09:27:00;2.80;;;1.42;;
50739;SDS011;36704;52.524;17.580;2023-05-18T09:29:55;2.38;;;1.23;;
50739;SDS011;36704;52.524;17.580;2023-05-18T09:32:43;5.43;;;1.58;;
50739;SDS011;36704;52.524;17.580;2023-05-18T09:35:32;4.05;;;1.40;;
50739;SDS011;36704;52.524;17.580;2023-05-18T09:38:20;4.32;;;2.05;;
50739;SDS011;36704;52.524;17.580;2023-05-18T09:41:16;1.95;;;1.23;;
50739;SDS011;36704;52.524;17.580;2023-05-18T09:44:04;1.70;;;1.15;;
50739;SDS011;36704;52.524;17.580;2023-05-18T09:46:54;4.43;;;1.40;;
50739;SDS011;36704;52.524;17.580;2023-05-18T09:49:45;5.55;;;1.73;;
50739;SDS011;36704;52.524;17.580;2023-05-18T09:52:37;1.83;;;1.45;;
50739;SDS011;36704;52.524;17.580;2023-05-18T09:55:29;3.15;;;1.40;;
50739;SDS011;36704;52.524;17.580;2023-05-18T09:58:16;3.97;;;1.70;;
50739;SDS011;36704;52.524;17.580;2023-05-18T10:01:03;1.60;;;0.95;;
50739;SDS011;36704;52.524;17.580;2023-05-18T10:03:51;4.53;;;1.85;;
50739;SDS011;36704;52.524;17.580;2023-05-18T10:06:38;2.60;;;1.40;;
50739;SDS011;36704;52.524;17.580;2023-05-18T10:09:36;6.07;;;1.60;;
50739;SDS011;36704;52.524;17.580;2023-05-18T10:12:23;1.92;;;1.17;;
50739;SDS011;36704;52.524;17.580;2023-05-18T10:15:09;2.03;;;1.33;;
50739;SDS011;36704;52.524;17.580;2023-05-18T10:18:00;5.07;;;1.40;;
50739;SDS011;36704;52.524;17.580;2023-05-18T10:20:52;3.33;;;1.20;;
50739;SDS011;36704;52.524;17.580;2023-05-18T10:23:45;3.10;;;1.55;;
50739;SDS011;36704;52.524;17.580;2023-05-18T10:26:36;5.18;;;1.55;;
50739;SDS011;36704;52.524;17.580;2023-05-18T10:29:25;2.78;;;1.65;;
50739;SDS011;36704;52.524;17.580;2023-05-18T10:32:13;2.85;;;1.48;;
50739;SDS011;36704;52.524;17.580;2023-05-18T10:35:00;5.80;;;1.65;;
50739;SDS011;36704;52.524;17.580;2023-05-18T10:37:50;2.80;;;1.40;;
50739;SDS011;36704;52.524;17.580;2023-05-18T10:40:40;12.82;;;1.60;;
50739;SDS011;36704;52.524;17.580;2023-05-18T10:43:28;1.85;;;1.10;;
50739;SDS011;36704;52.524;17.580;2023-05-18T10:46:18;2.22;;;1.20;;
50739;SDS011;36704;52.524;17.580;2023-05-18T10:49:08;1.80;;;1.15;;
50739;SDS011;36704;52.524;17.580;2023-05-18T10:51:58;6.32;;;1.90;;
50739;SDS011;36704;52.524;17.580;2023-05-18T10:54:45;5.93;;;1.38;;
50739;SDS011;36704;52.524;17.580;2023-05-18T10:57:35;5.32;;;1.08;;
50739;SDS011;36704;52.524;17.580;2023-05-18T11:00:24;3.08;;;0.98;;
50739;SDS011;36704;52.524;17.580;2023-05-18T11:03:12;2.85;;;1.00;;
50739;SDS011;36704;52.524;17.580;2023-05-18T11:06:04;3.47;;;1.02;;
50739;SDS011;36704;52.524;17.580;2023-05-18T11:08:56;5.55;;;1.40;;
50739;SDS011;36704;52.524;17.580;2023-05-18T11:11:50;2.95;;;1.00;;
50739;SDS011;36704;52.524;17.580;2023-05-18T11:14:47;3.10;;;1.00;;
50739;SDS011;36704;52.524;17.580;2023-05-18T11:17:39;1.98;;;1.30;;
50739;SDS011;36704;52.524;17.580;2023-05-18T11:20:26;4.55;;;1.27;;
50739;SDS011;36704;52.524;17.580;2023-05-18T11:23:13;3.60;;;1.35;;
50739;SDS011;36704;52.524;17.580;2023-05-18T11:26:01;1.73;;;0.90;;
50739;SDS011;36704;52.524;17.580;2023-05-18T11:28:52;2.95;;;1.40;;
50739;SDS011;36704;52.524;17.580;2023-05-18T11:31:42;2.58;;;1.05;;
50739;SDS011;36704;52.524;17.580;2023-05-18T11:38:07;2.20;;;1.27;;
50739;SDS011;36704;52.524;17.580;2023-05-18T11:40:46;2.75;;;1.45;;
50739;SDS011;36704;52.524;17.580;2023-05-18T11:43:33;1.60;;;1.10;;
50739;SDS011;36704;52.524;17.580;2023-05-18T11:46:23;2.03;;;1.33;;
50739;SDS011;36704;52.524;17.580;2023-05-18T11:49:10;3.33;;;1.08;;
50739;SDS011;36704;52.524;17.580;2023-05-18T11:55:12;2.35;;;1.08;;
50739;SDS011;36704;52.524;17.580;2023-05-18T11:57:59;3.90;;;1.23;;
50739;SDS011;36704;52.524;17.580;2023-05-18T12:00:47;3.38;;;1.10;;
50739;SDS011;36704;52.524;17.580;2023-05-18T12:03:34;2.63;;;1.27;;
50739;SDS011;36704;52.524;17.580;2023-05-18T12:06:21;5.13;;;1.25;;
50739;SDS011;36704;52.524;17.580;2023-05-18T12:09:07;1.90;;;1.20;;
50739;SDS011;36704;52.524;17.580;2023-05-18T12:11:54;2.70;;;1.10;;
50739;SDS011;36704;52.524;17.580;2023-05-18T12:14:41;6.13;;;1.02;;
50739;SDS011;36704;52.524;17.580;2023-05-18T12:17:42;3.78;;;1.25;;
50739;SDS011;36704;52.524;17.580;2023-05-18T12:20:30;4.28;;;1.30;;
50739;SDS011;36704;52.524;17.580;2023-05-18T12:23:17;2.03;;;1.30;;
50739;SDS011;36704;52.524;17.580;2023-05-18T12:26:04;3.55;;;1.08;;
50739;SDS011;36704;52.524;17.580;2023-05-18T12:28:50;2.17;;;1.10;;
50739;SDS011;36704;52.524;17.580;2023-05-18T12:31:41;2.00;;;1.25;;
50739;SDS011;36704;52.524;17.580;2023-05-18T12:34:28;3.25;;;1.40;;
50739;SDS011;36704;52.524;17.580;2023-05-18T12:37:14;2.00;;;1.15;;
50739;SDS011;36704;52.524;17.580;2023-05-18T12:40:01;2.30;;;1.17;;
50739;SDS011;36704;52.524;17.580;2023-05-18T12:42:51;2.80;;;1.25;;
50739;SDS011;36704;52.524;17.580;2023-05-18T12:48:26;3.50;;;1.75;;
50739;SDS011;36704;52.524;17.580;2023-05-18T12:51:16;4.65;;;1.30;;
50739;SDS011;36704;52.524;17.580;2023-05-18T12:54:04;1.83;;;1.27;;
50739;SDS011;36704;52.524;17.580;2023-05-18T12:56:52;3.28;;;1.33;;
50739;SDS011;36704;52.524;17.580;2023-05-18T12:59:47;3.17;;;1.33;;
50739;SDS011;36704;52.524;17.580;2023-05-18T13:02:38;6.45;;;1.40;;
50739;SDS011;36704;52.524;17.580;2023-05-18T13:05:24;5.70;;;1.67;;
50739;SDS011;36704;52.524;17.580;2023-05-18T13:08:15;2.53;;;1.20;;
50739;SDS011;36704;52.524;17.580;2023-05-18T13:11:08;2.95;;;1.40;;
50739;SDS011;36704;52.524;17.580;2023-05-18T13:14:01;2.83;;;1.40;;
50739;SDS011;36704;52.524;17.580;2023-05-18T13:16:57;5.00;;;1.55;;
50739;SDS011;36704;52.524;17.580;2023-05-18T13:19:44;7.18;;;2.67;;
50739;SDS011;36704;52.524;17.580;2023-05-18T13:22:31;2.78;;;1.40;;
50739;SDS011;36704;52.524;17.580;2023-05-18T13:25:18;6.72;;;1.98;;
50739;SDS011;36704;52.524;17.580;2023-05-18T13:28:04;4.82;;;1.75;;
50739;SDS011;36704;52.524;17.580;2023-05-18T13:30:54;3.45;;;1.40;;
50739;SDS011;36704;52.524;17.580;2023-05-18T13:33:44;5.53;;;1.90;;
50739;SDS011;36704;52.524;17.580;2023-05-18T13:36:42;3.58;;;1.20;;
50739;SDS011;36704;52.524;17.580;2023-05-18T13:39:28;3.22;;;1.70;;
50739;SDS011;36704;52.524;17.580;2023-05-18T13:42:15;3.35;;;1.30;;
50739;SDS011;36704;52.524;17.580;2023-05-18T13:45:06;2.47;;;1.55;;
50739;SDS011;36704;52.524;17.580;2023-05-18T13:47:53;4.43;;;1.50;;
50739;SDS011;36704;52.524;17.580;2023-05-18T13:50:39;2.55;;;1.33;;
50739;SDS011;36704;52.524;17.580;2023-05-18T13:53:26;6.03;;;1.52;;
50739;SDS011;36704;52.524;17.580;2023-05-18T13:56:13;3.20;;;1.42;;
50739;SDS011;36704;52.524;17.580;2023-05-18T13:59:00;2.92;;;1.70;;
50739;SDS011;36704;52.524;17.580;2023-05-18T14:01:47;3.08;;;1.50;;
50739;SDS011;36704;52.524;17.580;2023-05-18T14:04:34;1.52;;;1.35;;
50739;SDS011;36704;52.524;17.580;2023-05-18T14:07:21;3.55;;;1.40;;
50739;SDS011;36704;52.524;17.580;2023-05-18T14:10:09;4.63;;;1.42;;
50739;SDS011;36704;52.524;17.580;2023-05-18T14:12:57;6.32;;;1.35;;
50739;SDS011;36704;52.524;17.580;2023-05-18T14:15:44;4.40;;;1.40;;
50739;SDS011;36704;52.524;17.580;2023-05-18T14:18:37;3.03;;;1.42;;
50739;SDS011;36704;52.524;17.580;2023-05-18T14:21:27;3.10;;;1.67;;
50739;SDS011;36704;52.524;17.580;2023-05-18T14:24:17;3.85;;;1.70;;
50739;SDS011;36704;52.524;17.580;2023-05-18T14:27:04;4.90;;;1.35;;
50739;SDS011;36704;52.524;17.580;2023-05-18T14:29:51;3.05;;;1.70;;
50739;SDS011;36704;52.524;17.580;2023-05-18T14:32:37;3.10;;;1.52;;
50739;SDS011;36704;52.524;17.580;2023-05-18T14:35:24;3.58;;;1.55;;
50739;SDS011;36704;52.524;17.580;2023-05-18T14:38:11;3.42;;;1.48;;
50739;SDS011;36704;52.524;17.580;2023-05-18T14:41:06;2.42;;;1.33;;
50739;SDS011;36704;52.524;17.580;2023-05-18T14:43:53;2.13;;;1.30;;
50739;SDS011;36704;52.524;17.580;2023-05-18T14:46:40;2.50;;;1.40;;
50739;SDS011;36704;52.524;17.580;2023-05-18T14:49:27;22.38;;;12.50;;
50739;SDS011;36704;52.524;17.580;2023-05-18T14:52:13;8.02;;;1.90;;
50739;SDS011;36704;52.524;17.580;2023-05-18T14:54:59;5.18;;;1.67;;
50739;SDS011;36704;52.524;17.580;2023-05-18T14:57:46;3.90;;;1.60;;
50739;SDS011;36704;52.524;17.580;2023-05-18T15:00:33;2.55;;;1.35;;
50739;SDS011;36704;52.524;17.580;2023-05-18T15:03:19;3.03;;;1.50;;
50739;SDS011;36704;52.524;17.580;2023-05-18T15:06:06;4.32;;;1.63;;
50739;SDS011;36704;52.524;17.580;2023-05-18T15:08:54;2.85;;;1.33;;
50739;SDS011;36704;52.524;17.580;2023-05-18T15:11:42;4.25;;;1.83;;
50739;SDS011;36704;52.524;17.580;2023-05-18T15:14:36;2.75;;;1.60;;
50739;SDS011;36704;52.524;17.580;2023-05-18T15:17:23;2.50;;;1.67;;
50739;SDS011;36704;52.524;17.580;2023-05-18T15:20:09;5.32;;;2.00;;
50739;SDS011;36704;52.524;17.580;2023-05-18T15:22:56;4.13;;;1.60;;
50739;SDS011;36704;52.524;17.580;2023-05-18T15:25:45;7.22;;;2.10;;
50739;SDS011;36704;52.524;17.580;2023-05-18T15:28:32;5.22;;;1.52;;
50739;SDS011;36704;52.524;17.580;2023-05-18T15:31:18;2.90;;;1.52;;
50739;SDS011;36704;52.524;17.580;2023-05-18T15:34:06;5.10;;;1.63;;
50739;SDS011;36704;52.524;17.580;2023-05-18T15:36:52;5.18;;;2.03;;
50739;SDS011;36704;52.524;17.580;2023-05-18T15:39:40;4.97;;;2.03;;
50739;SDS011;36704;52.524;17.580;2023-05-18T15:42:26;5.53;;;2.13;;
50739;SDS011;36704;52.524;17.580;2023-05-18T15:45:14;3.38;;;1.60;;
50739;SDS011;36704;52.524;17.580;2023-05-18T15:48:04;3.83;;;1.20;;
50739;SDS011;36704;52.524;17.580;2023-05-18T15:50:54;5.07;;;1.85;;
50739;SDS011;36704;52.524;17.580;2023-05-18T15:53:41;4.88;;;1.95;;
50739;SDS011;36704;52.524;17.580;2023-05-18T15:56:29;6.63;;;2.25;;
50739;SDS011;36704;52.524;17.580;2023-05-18T15:59:15;4.63;;;1.70;;
50739;SDS011;36704;52.524;17.580;2023-05-18T16:02:02;3.78;;;2.00;;
50739;SDS011;36704;52.524;17.580;2023-05-18T16:04:49;5.25;;;2.47;;
50739;SDS011;36704;52.524;17.580;2023-05-18T16:07:36;3.35;;;1.48;;
50739;SDS011;36704;52.524;17.580;2023-05-18T16:10:25;5.00;;;2.00;;
50739;SDS011;36704;52.524;17.580;2023-05-18T16:13:12;7.32;;;5.30;;
50739;SDS011;36704;52.524;17.580;2023-05-18T16:16:01;5.70;;;1.90;;
50739;SDS011;36704;52.524;17.580;2023-05-18T16:18:49;5.40;;;2.08;;
50739;SDS011;36704;52.524;17.580;2023-05-18T16:21:38;5.22;;;1.90;;
50739;SDS011;36704;52.524;17.580;2023-05-18T16:24:42;3.58;;;1.58;;
50739;SDS011;36704;52.524;17.580;2023-05-18T16:37:10;3.50;;;1.70;;
50739;SDS011;36704;52.524;17.580;2023-05-18T16:39:57;2.97;;;1.23;;
50739;SDS011;36704;52.524;17.580;2023-05-18T16:42:46;4.28;;;1.35;;
50739;SDS011;36704;52.524;17.580;2023-05-18T16:49:34;4.82;;;1.63;;
50739;SDS011;36704;52.524;17.580;2023-05-18T16:56:14;3.75;;;1.40;;
50739;SDS011;36704;52.524;17.580;2023-05-18T16:59:09;4.47;;;1.67;;
50739;SDS011;36704;52.524;17.580;2023-05-18T17:01:58;3.83;;;1.30;;
50739;SDS011;36704;52.524;17.580;2023-05-18T17:04:54;3.28;;;1.52;;
50739;SDS011;36704;52.524;17.580;2023-05-18T17:07:41;3.67;;;1.63;;
50739;SDS011;36704;52.524;17.580;2023-05-18T17:10:32;7.70;;;1.85;;
50739;SDS011;36704;52.524;17.580;2023-05-18T17:13:20;3.05;;;1.50;;
50739;SDS011;36704;52.524;17.580;2023-05-18T17:16:13;4.47;;;1.73;;
50739;SDS011;36704;52.524;17.580;2023-05-18T17:19:02;4.70;;;1.63;;
50739;SDS011;36704;52.524;17.580;2023-05-18T17:21:49;3.42;;;2.00;;
50739;SDS011;36704;52.524;17.580;2023-05-18T17:24:36;4.10;;;1.42;;